createdAt,value
2022-12-03T00:04:45.037Z,-3.23
2022-12-03T00:13:06.544Z,-3.23
2022-12-03T00:21:28.050Z,-3.26
2022-12-03T00:29:49.469Z,-3.24
2022-12-03T00:38:10.984Z,-3.21
2022-12-03T00:46:32.595Z,-3.21
2022-12-03T00:54:54.974Z,-3.21
2022-12-03T01:03:16.700Z,-3.20
2022-12-03T01:11:38.180Z,-3.15
2022-12-03T01:20:00.969Z,-3.15
2022-12-03T01:28:22.368Z,-3.14
2022-12-03T01:36:43.837Z,-3.16
2022-12-03T01:45:07.069Z,-3.14
2022-12-03T01:53:28.733Z,-3.15
2022-12-03T02:01:50.231Z,-3.16
2022-12-03T02:10:14.451Z,-3.17
2022-12-03T02:18:36.040Z,-3.11
2022-12-03T02:26:57.701Z,-3.07
2022-12-03T02:35:32.372Z,-3.10
2022-12-03T02:43:53.882Z,-3.08
2022-12-03T02:52:15.483Z,-3.05
2022-12-03T03:00:38.065Z,-2.98
2022-12-03T03:09:00.108Z,-2.92
2022-12-03T03:17:21.657Z,-2.94
2022-12-03T03:25:51.427Z,-2.96
2022-12-03T03:34:14.803Z,-2.95
2022-12-03T03:42:37.355Z,-2.91
2022-12-03T03:50:59.699Z,-2.87
2022-12-03T03:59:21.160Z,-2.87
2022-12-03T04:07:42.641Z,-2.83
2022-12-03T04:16:04.617Z,-2.83
2022-12-03T04:24:26.264Z,-2.82
2022-12-03T04:33:06.711Z,-2.82
2022-12-03T04:41:28.208Z,-2.80
2022-12-03T04:49:51.298Z,-2.80
2022-12-03T04:58:12.735Z,-2.75
2022-12-03T05:06:34.183Z,-2.73
2022-12-03T05:14:55.972Z,-2.69
2022-12-03T05:23:17.698Z,-2.70
2022-12-03T05:31:39.104Z,-2.71
2022-12-03T05:40:01.059Z,-2.68
2022-12-03T05:48:22.967Z,-2.63
2022-12-03T05:56:44.450Z,-2.66
2022-12-03T06:05:07.381Z,-2.65
2022-12-03T06:13:28.811Z,-2.63
2022-12-03T06:21:50.219Z,-2.61
2022-12-03T06:30:12.962Z,-2.56
2022-12-03T06:38:34.381Z,-2.53
2022-12-03T06:46:56.039Z,-2.48
2022-12-03T06:55:17.628Z,-2.42
2022-12-03T07:03:39.104Z,-2.34
2022-12-03T07:12:00.717Z,-2.25
2022-12-03T07:20:22.260Z,-2.25
2022-12-03T07:28:43.655Z,-2.24
2022-12-03T07:37:05.187Z,-2.18
2022-12-03T07:45:27.052Z,-2.13
2022-12-03T07:53:48.680Z,-2.07
2022-12-03T08:02:10.177Z,-2.00
2022-12-03T08:10:31.847Z,-1.94
2022-12-03T08:18:54.057Z,-1.84
2022-12-03T08:27:19.423Z,-1.78
2022-12-03T08:35:49.501Z,-1.66
2022-12-03T08:44:27.695Z,-1.59
2022-12-03T08:52:49.410Z,-1.50
2022-12-03T09:01:10.954Z,-1.41
2022-12-03T09:09:33.913Z,-1.37
2022-12-03T09:17:55.396Z,-1.25
2022-12-03T09:26:17.000Z,-1.17
2022-12-03T09:34:38.460Z,-1.08
2022-12-03T09:43:00.283Z,-0.97
2022-12-03T09:51:25.269Z,-0.88
2022-12-03T09:59:47.010Z,-0.82
2022-12-03T10:08:12.537Z,-0.73
2022-12-03T10:16:35.360Z,-0.69
2022-12-03T10:25:11.115Z,-0.57
2022-12-03T10:33:44.104Z,-0.36
2022-12-03T10:42:18.056Z,-0.24
2022-12-03T10:50:47.066Z,-0.22
2022-12-03T10:59:19.361Z,-0.22
2022-12-03T11:07:42.203Z,-0.22
2022-12-03T11:16:05.370Z,-0.26
2022-12-03T11:24:26.913Z,-0.21
2022-12-03T11:32:54.524Z,-0.20
2022-12-03T11:41:26.992Z,-0.26
2022-12-03T11:49:48.589Z,-0.24
2022-12-03T11:58:30.597Z,-0.21
2022-12-03T12:06:53.575Z,-0.23
2022-12-03T12:15:43.612Z,-0.20
2022-12-03T12:24:40.722Z,-0.18
2022-12-03T12:33:25.748Z,-0.20
2022-12-03T12:41:49.691Z,-0.21
2022-12-03T12:50:11.684Z,-0.26
2022-12-03T12:58:33.763Z,-0.26
2022-12-03T13:06:55.331Z,-0.30
2022-12-03T13:15:35.662Z,-0.27
2022-12-03T13:23:58.090Z,-0.21
2022-12-03T13:32:22.684Z,-0.21
2022-12-03T13:40:44.234Z,-0.19
2022-12-03T13:49:18.496Z,-0.13
2022-12-03T13:57:39.929Z,-0.14
2022-12-03T14:06:01.479Z,-0.16
2022-12-03T14:14:23.211Z,-0.14
2022-12-03T14:22:45.090Z,-0.12
2022-12-03T14:31:06.582Z,-0.12
2022-12-03T14:39:28.157Z,-0.14
2022-12-03T14:47:49.674Z,-0.13
2022-12-03T14:56:11.103Z,-0.15
2022-12-03T15:04:32.787Z,-0.13
2022-12-03T15:12:54.217Z,-0.10
2022-12-03T15:21:17.154Z,-0.10
2022-12-03T15:29:40.488Z,-0.08
2022-12-03T15:38:03.909Z,-0.05
2022-12-03T15:46:30.604Z,-0.03
2022-12-03T15:54:54.775Z,0.03
2022-12-03T16:03:18.487Z,0.06
2022-12-03T16:11:40.380Z,0.05
2022-12-03T16:20:02.213Z,0.04
2022-12-03T16:28:23.968Z,0.04
2022-12-03T16:36:45.423Z,0.05
2022-12-03T16:45:08.168Z,0.13
2022-12-03T16:53:30.009Z,0.26
2022-12-03T17:01:51.646Z,0.29
2022-12-03T17:10:13.259Z,0.31
2022-12-03T17:18:34.765Z,0.33
2022-12-03T17:26:56.285Z,0.28
2022-12-03T17:35:18.884Z,0.25
2022-12-03T17:43:40.352Z,0.27
2022-12-03T17:52:01.880Z,0.24
2022-12-03T18:00:23.449Z,0.21
2022-12-03T18:08:44.989Z,0.24
2022-12-03T18:17:06.503Z,0.27
2022-12-03T18:25:28.950Z,0.26
2022-12-03T18:33:50.506Z,0.23
2022-12-03T18:42:16.526Z,0.25
2022-12-03T18:50:39.422Z,0.22
2022-12-03T18:59:02.155Z,0.18
2022-12-03T19:07:23.603Z,0.16
2022-12-03T19:15:45.994Z,0.13
2022-12-03T19:24:24.792Z,0.10
2022-12-03T19:32:51.663Z,0.12
2022-12-03T19:41:13.424Z,0.04
2022-12-03T19:49:35.066Z,-0.00
2022-12-03T19:57:56.628Z,0.01
2022-12-03T20:06:22.401Z,-0.02
2022-12-03T20:14:44.720Z,-0.03
2022-12-03T20:23:06.428Z,-0.06
2022-12-03T20:31:30.647Z,-0.18
2022-12-03T20:39:54.033Z,-0.25
2022-12-03T20:48:16.232Z,-0.24
2022-12-03T20:56:44.583Z,-0.30
2022-12-03T21:05:07.145Z,-0.32
2022-12-03T21:13:32.284Z,-0.32
2022-12-03T21:21:54.359Z,-0.34
2022-12-03T21:30:16.125Z,-0.32
2022-12-03T21:38:37.784Z,-0.28
2022-12-03T21:47:09.617Z,-0.30
2022-12-03T21:55:39.950Z,-0.32
2022-12-03T22:04:01.638Z,-0.32
2022-12-03T22:12:23.674Z,-0.36
2022-12-03T22:20:45.116Z,-0.37
2022-12-03T22:29:06.566Z,-0.38
2022-12-03T22:37:28.306Z,-0.42
2022-12-03T22:45:55.881Z,-0.38
2022-12-03T22:54:22.389Z,-0.37
2022-12-03T23:02:46.010Z,-0.37
2022-12-03T23:11:07.658Z,-0.37
2022-12-03T23:19:29.145Z,-0.42
2022-12-03T23:27:50.616Z,-0.44
2022-12-03T23:36:12.849Z,-0.43
2022-12-03T23:44:34.332Z,-0.44
2022-12-03T23:52:56.050Z,-0.43
